sensor_id;sensor_type;location;lat;lon;timestamp;P1;durP1;ratioP1;P2;durP2;ratioP2
7887;SDS011;3989;48.810;9.208;2023-07-29T00:02:17;7.57;;;5.40;;
7887;SDS011;3989;48.810;9.208;2023-07-29T00:04:43;6.23;;;5.20;;
7887;SDS011;3989;48.810;9.208;2023-07-29T00:07:10;5.50;;;5.00;;
7887;SDS011;3989;48.810;9.208;2023-07-29T00:09:36;5.90;;;4.80;;
7887;SDS011;3989;48.810;9.208;2023-07-29T00:12:03;5.10;;;4.60;;
7887;SDS011;3989;48.810;9.208;2023-07-29T00:14:30;5.77;;;4.90;;
7887;SDS011;3989;48.810;9.208;2023-07-29T00:16:57;4.90;;;4.43;;
7887;SDS011;3989;48.810;9.208;2023-07-29T00:19:24;5.17;;;4.67;;
7887;SDS011;3989;48.810;9.208;2023-07-29T00:21:51;4.50;;;4.20;;
7887;SDS011;3989;48.810;9.208;2023-07-29T00:24:18;4.17;;;3.77;;
7887;SDS011;3989;48.810;9.208;2023-07-29T00:26:44;4.87;;;4.33;;
7887;SDS011;3989;48.810;9.208;2023-07-29T00:29:11;6.60;;;4.77;;
7887;SDS011;3989;48.810;9.208;2023-07-29T00:31:37;4.97;;;4.57;;
7887;SDS011;3989;48.810;9.208;2023-07-29T00:34:04;5.43;;;4.93;;
7887;SDS011;3989;48.810;9.208;2023-07-29T00:36:32;6.00;;;4.30;;
7887;SDS011;3989;48.810;9.208;2023-07-29T00:38:58;5.27;;;4.77;;
7887;SDS011;3989;48.810;9.208;2023-07-29T00:41:25;5.33;;;4.53;;
7887;SDS011;3989;48.810;9.208;2023-07-29T00:43:52;4.97;;;4.30;;
7887;SDS011;3989;48.810;9.208;2023-07-29T00:46:18;5.03;;;4.40;;
7887;SDS011;3989;48.810;9.208;2023-07-29T00:48:46;5.40;;;3.83;;
7887;SDS011;3989;48.810;9.208;2023-07-29T00:51:12;4.77;;;4.30;;
7887;SDS011;3989;48.810;9.208;2023-07-29T00:53:40;6.43;;;4.30;;
7887;SDS011;3989;48.810;9.208;2023-07-29T00:56:07;4.53;;;4.13;;
7887;SDS011;3989;48.810;9.208;2023-07-29T00:58:33;5.90;;;4.63;;
7887;SDS011;3989;48.810;9.208;2023-07-29T01:01:00;3.93;;;3.63;;
7887;SDS011;3989;48.810;9.208;2023-07-29T01:03:27;3.90;;;3.50;;
7887;SDS011;3989;48.810;9.208;2023-07-29T01:05:58;4.20;;;3.90;;
7887;SDS011;3989;48.810;9.208;2023-07-29T01:08:33;3.23;;;3.03;;
7887;SDS011;3989;48.810;9.208;2023-07-29T01:11:14;3.93;;;3.60;;
7887;SDS011;3989;48.810;9.208;2023-07-29T01:13:50;5.40;;;3.43;;
7887;SDS011;3989;48.810;9.208;2023-07-29T01:16:24;4.53;;;4.13;;
7887;SDS011;3989;48.810;9.208;2023-07-29T01:18:54;3.80;;;3.50;;
7887;SDS011;3989;48.810;9.208;2023-07-29T01:21:21;5.77;;;3.60;;
7887;SDS011;3989;48.810;9.208;2023-07-29T01:23:53;4.60;;;4.20;;
7887;SDS011;3989;48.810;9.208;2023-07-29T01:26:19;3.93;;;3.30;;
7887;SDS011;3989;48.810;9.208;2023-07-29T01:28:46;4.63;;;3.93;;
7887;SDS011;3989;48.810;9.208;2023-07-29T01:31:13;3.70;;;3.37;;
7887;SDS011;3989;48.810;9.208;2023-07-29T01:33:47;3.97;;;3.67;;
7887;SDS011;3989;48.810;9.208;2023-07-29T01:36:20;3.83;;;3.53;;
7887;SDS011;3989;48.810;9.208;2023-07-29T01:38:48;3.93;;;3.43;;
7887;SDS011;3989;48.810;9.208;2023-07-29T01:41:18;4.53;;;3.67;;
7887;SDS011;3989;48.810;9.208;2023-07-29T01:43:46;4.60;;;3.43;;
7887;SDS011;3989;48.810;9.208;2023-07-29T01:46:13;5.10;;;3.60;;
7887;SDS011;3989;48.810;9.208;2023-07-29T01:48:41;4.30;;;3.90;;
7887;SDS011;3989;48.810;9.208;2023-07-29T01:51:07;3.57;;;3.27;;
7887;SDS011;3989;48.810;9.208;2023-07-29T01:53:34;3.37;;;3.13;;
7887;SDS011;3989;48.810;9.208;2023-07-29T01:56:01;3.03;;;2.83;;
7887;SDS011;3989;48.810;9.208;2023-07-29T01:58:29;3.10;;;2.90;;
7887;SDS011;3989;48.810;9.208;2023-07-29T02:00:56;2.70;;;2.60;;
7887;SDS011;3989;48.810;9.208;2023-07-29T02:03:23;2.50;;;2.40;;
7887;SDS011;3989;48.810;9.208;2023-07-29T02:05:49;3.40;;;3.00;;
7887;SDS011;3989;48.810;9.208;2023-07-29T02:08:16;2.67;;;2.50;;
7887;SDS011;3989;48.810;9.208;2023-07-29T02:10:42;2.90;;;2.70;;
7887;SDS011;3989;48.810;9.208;2023-07-29T02:13:10;3.10;;;2.90;;
7887;SDS011;3989;48.810;9.208;2023-07-29T02:15:38;5.83;;;3.60;;
7887;SDS011;3989;48.810;9.208;2023-07-29T02:18:04;3.60;;;3.30;;
7887;SDS011;3989;48.810;9.208;2023-07-29T02:20:32;3.60;;;3.30;;
7887;SDS011;3989;48.810;9.208;2023-07-29T02:22:58;3.40;;;3.20;;
7887;SDS011;3989;48.810;9.208;2023-07-29T02:25:25;3.07;;;2.90;;
7887;SDS011;3989;48.810;9.208;2023-07-29T02:27:52;3.47;;;3.17;;
7887;SDS011;3989;48.810;9.208;2023-07-29T02:30:20;3.10;;;2.90;;
7887;SDS011;3989;48.810;9.208;2023-07-29T02:32:48;4.00;;;3.67;;
7887;SDS011;3989;48.810;9.208;2023-07-29T02:35:14;3.93;;;3.63;;
7887;SDS011;3989;48.810;9.208;2023-07-29T02:37:41;3.93;;;3.63;;
7887;SDS011;3989;48.810;9.208;2023-07-29T02:40:08;4.30;;;3.90;;
7887;SDS011;3989;48.810;9.208;2023-07-29T02:42:35;5.40;;;3.63;;
7887;SDS011;3989;48.810;9.208;2023-07-29T02:45:02;3.50;;;3.20;;
7887;SDS011;3989;48.810;9.208;2023-07-29T02:47:29;3.67;;;3.37;;
7887;SDS011;3989;48.810;9.208;2023-07-29T02:49:57;3.40;;;3.10;;
7887;SDS011;3989;48.810;9.208;2023-07-29T02:52:23;4.30;;;3.43;;
7887;SDS011;3989;48.810;9.208;2023-07-29T02:54:50;3.80;;;3.47;;
7887;SDS011;3989;48.810;9.208;2023-07-29T02:57:16;3.57;;;3.27;;
7887;SDS011;3989;48.810;9.208;2023-07-29T02:59:43;3.80;;;3.50;;
7887;SDS011;3989;48.810;9.208;2023-07-29T03:02:10;3.73;;;2.87;;
7887;SDS011;3989;48.810;9.208;2023-07-29T03:04:37;3.07;;;2.87;;
7887;SDS011;3989;48.810;9.208;2023-07-29T03:07:05;3.40;;;3.10;;
7887;SDS011;3989;48.810;9.208;2023-07-29T03:09:32;3.00;;;2.80;;
7887;SDS011;3989;48.810;9.208;2023-07-29T03:11:59;3.90;;;3.10;;
7887;SDS011;3989;48.810;9.208;2023-07-29T03:14:25;3.13;;;2.63;;
7887;SDS011;3989;48.810;9.208;2023-07-29T03:16:52;3.10;;;2.80;;
7887;SDS011;3989;48.810;9.208;2023-07-29T03:19:19;3.00;;;2.60;;
7887;SDS011;3989;48.810;9.208;2023-07-29T03:21:45;2.80;;;2.60;;
7887;SDS011;3989;48.810;9.208;2023-07-29T03:24:13;4.17;;;2.60;;
7887;SDS011;3989;48.810;9.208;2023-07-29T03:26:40;2.87;;;2.67;;
7887;SDS011;3989;48.810;9.208;2023-07-29T03:29:06;3.67;;;2.90;;
7887;SDS011;3989;48.810;9.208;2023-07-29T03:31:33;2.93;;;2.63;;
7887;SDS011;3989;48.810;9.208;2023-07-29T03:33:59;5.00;;;2.80;;
7887;SDS011;3989;48.810;9.208;2023-07-29T03:36:26;4.17;;;3.00;;
7887;SDS011;3989;48.810;9.208;2023-07-29T03:38:52;4.40;;;2.87;;
7887;SDS011;3989;48.810;9.208;2023-07-29T03:41:20;3.40;;;3.20;;
7887;SDS011;3989;48.810;9.208;2023-07-29T03:43:47;5.60;;;3.30;;
7887;SDS011;3989;48.810;9.208;2023-07-29T03:46:14;5.30;;;3.33;;
7887;SDS011;3989;48.810;9.208;2023-07-29T03:48:44;3.43;;;3.13;;
7887;SDS011;3989;48.810;9.208;2023-07-29T03:51:11;3.23;;;3.03;;
7887;SDS011;3989;48.810;9.208;2023-07-29T03:53:37;3.30;;;3.10;;
7887;SDS011;3989;48.810;9.208;2023-07-29T03:56:04;3.83;;;3.30;;
7887;SDS011;3989;48.810;9.208;2023-07-29T03:58:32;3.00;;;2.80;;
7887;SDS011;3989;48.810;9.208;2023-07-29T04:00:58;3.40;;;3.10;;
7887;SDS011;3989;48.810;9.208;2023-07-29T04:03:25;3.40;;;3.20;;
7887;SDS011;3989;48.810;9.208;2023-07-29T04:05:51;3.57;;;3.30;;
7887;SDS011;3989;48.810;9.208;2023-07-29T04:08:18;6.67;;;4.40;;
7887;SDS011;3989;48.810;9.208;2023-07-29T04:10:45;5.73;;;3.80;;
7887;SDS011;3989;48.810;9.208;2023-07-29T04:13:11;4.23;;;3.10;;
7887;SDS011;3989;48.810;9.208;2023-07-29T04:15:39;3.67;;;3.37;;
7887;SDS011;3989;48.810;9.208;2023-07-29T04:18:06;3.47;;;3.27;;
7887;SDS011;3989;48.810;9.208;2023-07-29T04:20:32;5.57;;;3.47;;
7887;SDS011;3989;48.810;9.208;2023-07-29T04:22:59;3.40;;;3.10;;
7887;SDS011;3989;48.810;9.208;2023-07-29T04:25:26;3.93;;;3.27;;
7887;SDS011;3989;48.810;9.208;2023-07-29T04:27:52;2.90;;;2.70;;
7887;SDS011;3989;48.810;9.208;2023-07-29T04:30:19;3.30;;;3.10;;
7887;SDS011;3989;48.810;9.208;2023-07-29T04:32:47;2.83;;;2.53;;
7887;SDS011;3989;48.810;9.208;2023-07-29T04:35:14;11.53;;;3.27;;
7887;SDS011;3989;48.810;9.208;2023-07-29T04:37:40;3.33;;;3.13;;
7887;SDS011;3989;48.810;9.208;2023-07-29T04:40:07;5.47;;;3.50;;
7887;SDS011;3989;48.810;9.208;2023-07-29T04:42:34;3.47;;;3.13;;
7887;SDS011;3989;48.810;9.208;2023-07-29T04:45:03;3.73;;;3.43;;
7887;SDS011;3989;48.810;9.208;2023-07-29T04:47:30;5.30;;;4.90;;
7887;SDS011;3989;48.810;9.208;2023-07-29T04:49:58;5.47;;;4.23;;
7887;SDS011;3989;48.810;9.208;2023-07-29T04:52:24;7.13;;;4.03;;
7887;SDS011;3989;48.810;9.208;2023-07-29T04:54:51;6.83;;;3.77;;
7887;SDS011;3989;48.810;9.208;2023-07-29T04:57:17;4.43;;;3.57;;
7887;SDS011;3989;48.810;9.208;2023-07-29T04:59:44;3.23;;;3.03;;
7887;SDS011;3989;48.810;9.208;2023-07-29T05:02:10;3.60;;;3.40;;
7887;SDS011;3989;48.810;9.208;2023-07-29T05:04:37;4.20;;;3.90;;
7887;SDS011;3989;48.810;9.208;2023-07-29T05:07:05;5.03;;;3.90;;
7887;SDS011;3989;48.810;9.208;2023-07-29T05:09:32;4.27;;;3.90;;
7887;SDS011;3989;48.810;9.208;2023-07-29T05:11:59;4.80;;;4.37;;
7887;SDS011;3989;48.810;9.208;2023-07-29T05:14:25;5.07;;;4.40;;
7887;SDS011;3989;48.810;9.208;2023-07-29T05:16:52;5.07;;;4.47;;
7887;SDS011;3989;48.810;9.208;2023-07-29T05:19:18;4.97;;;3.97;;
7887;SDS011;3989;48.810;9.208;2023-07-29T05:21:45;5.27;;;3.67;;
7887;SDS011;3989;48.810;9.208;2023-07-29T05:24:13;4.10;;;3.70;;
7887;SDS011;3989;48.810;9.208;2023-07-29T05:26:40;4.20;;;3.80;;
7887;SDS011;3989;48.810;9.208;2023-07-29T05:29:06;5.10;;;3.20;;
7887;SDS011;3989;48.810;9.208;2023-07-29T05:31:33;3.97;;;3.67;;
7887;SDS011;3989;48.810;9.208;2023-07-29T05:33:59;4.53;;;3.70;;
7887;SDS011;3989;48.810;9.208;2023-07-29T05:36:26;4.97;;;3.93;;
7887;SDS011;3989;48.810;9.208;2023-07-29T05:38:53;3.50;;;3.30;;
7887;SDS011;3989;48.810;9.208;2023-07-29T05:41:21;4.00;;;3.70;;
7887;SDS011;3989;48.810;9.208;2023-07-29T05:43:47;6.40;;;3.90;;
7887;SDS011;3989;48.810;9.208;2023-07-29T05:46:14;4.83;;;3.90;;
7887;SDS011;3989;48.810;9.208;2023-07-29T05:48:40;3.90;;;3.55;;
7887;SDS011;3989;48.810;9.208;2023-07-29T05:51:07;5.43;;;3.77;;
7887;SDS011;3989;48.810;9.208;2023-07-29T05:53:33;5.05;;;3.80;;
7887;SDS011;3989;48.810;9.208;2023-07-29T05:55:59;8.07;;;3.42;;
7887;SDS011;3989;48.810;9.208;2023-07-29T05:58:27;3.17;;;2.85;;
7887;SDS011;3989;48.810;9.208;2023-07-29T06:00:56;3.17;;;2.83;;
7887;SDS011;3989;48.810;9.208;2023-07-29T06:03:22;4.05;;;2.80;;
7887;SDS011;3989;48.810;9.208;2023-07-29T06:05:49;4.05;;;2.75;;
7887;SDS011;3989;48.810;9.208;2023-07-29T06:08:16;4.70;;;2.42;;
7887;SDS011;3989;48.810;9.208;2023-07-29T06:10:42;4.15;;;2.47;;
7887;SDS011;3989;48.810;9.208;2023-07-29T06:13:09;3.00;;;2.80;;
7887;SDS011;3989;48.810;9.208;2023-07-29T06:15:37;2.55;;;2.40;;
7887;SDS011;3989;48.810;9.208;2023-07-29T06:18:03;4.18;;;2.30;;
7887;SDS011;3989;48.810;9.208;2023-07-29T06:20:30;2.80;;;2.60;;
7887;SDS011;3989;48.810;9.208;2023-07-29T06:22:56;2.92;;;2.22;;
7887;SDS011;3989;48.810;9.208;2023-07-29T06:25:23;3.67;;;2.50;;
7887;SDS011;3989;48.810;9.208;2023-07-29T06:27:50;2.45;;;2.35;;
7887;SDS011;3989;48.810;9.208;2023-07-29T06:30:16;2.85;;;2.17;;
7887;SDS011;3989;48.810;9.208;2023-07-29T06:32:44;3.17;;;2.67;;
7887;SDS011;3989;48.810;9.208;2023-07-29T06:35:10;3.05;;;2.40;;
7887;SDS011;3989;48.810;9.208;2023-07-29T06:37:37;2.45;;;2.22;;
7887;SDS011;3989;48.810;9.208;2023-07-29T06:40:04;2.60;;;2.40;;
7887;SDS011;3989;48.810;9.208;2023-07-29T06:42:31;2.28;;;1.75;;
7887;SDS011;3989;48.810;9.208;2023-07-29T06:44:58;1.95;;;1.70;;
7887;SDS011;3989;48.810;9.208;2023-07-29T06:47:24;2.40;;;2.20;;
7887;SDS011;3989;48.810;9.208;2023-07-29T06:49:53;2.65;;;2.45;;
7887;SDS011;3989;48.810;9.208;2023-07-29T06:52:20;3.05;;;2.28;;
7887;SDS011;3989;48.810;9.208;2023-07-29T06:54:46;2.85;;;2.40;;
7887;SDS011;3989;48.810;9.208;2023-07-29T06:57:15;2.22;;;2.13;;
7887;SDS011;3989;48.810;9.208;2023-07-29T06:59:50;2.78;;;2.58;;
7887;SDS011;3989;48.810;9.208;2023-07-29T07:02:17;2.60;;;2.40;;
7887;SDS011;3989;48.810;9.208;2023-07-29T07:04:43;4.30;;;2.90;;
7887;SDS011;3989;48.810;9.208;2023-07-29T07:07:11;2.70;;;2.50;;
7887;SDS011;3989;48.810;9.208;2023-07-29T07:09:38;3.15;;;2.40;;
7887;SDS011;3989;48.810;9.208;2023-07-29T07:12:05;3.03;;;2.70;;
7887;SDS011;3989;48.810;9.208;2023-07-29T07:14:32;3.03;;;2.60;;
7887;SDS011;3989;48.810;9.208;2023-07-29T07:16:58;2.58;;;2.42;;
7887;SDS011;3989;48.810;9.208;2023-07-29T07:19:25;3.13;;;2.80;;
7887;SDS011;3989;48.810;9.208;2023-07-29T07:21:52;3.67;;;2.75;;
7887;SDS011;3989;48.810;9.208;2023-07-29T07:24:20;2.83;;;2.67;;
7887;SDS011;3989;48.810;9.208;2023-07-29T07:26:46;4.43;;;3.15;;
7887;SDS011;3989;48.810;9.208;2023-07-29T07:29:13;4.50;;;2.75;;
7887;SDS011;3989;48.810;9.208;2023-07-29T07:31:41;4.10;;;2.53;;
7887;SDS011;3989;48.810;9.208;2023-07-29T07:34:16;2.53;;;2.40;;
7887;SDS011;3989;48.810;9.208;2023-07-29T07:36:42;2.67;;;2.47;;
7887;SDS011;3989;48.810;9.208;2023-07-29T07:39:09;4.03;;;2.55;;
7887;SDS011;3989;48.810;9.208;2023-07-29T07:41:37;2.80;;;2.60;;
7887;SDS011;3989;48.810;9.208;2023-07-29T07:44:03;3.05;;;2.10;;
7887;SDS011;3989;48.810;9.208;2023-07-29T07:46:30;1.55;;;1.45;;
7887;SDS011;3989;48.810;9.208;2023-07-29T07:48:56;1.90;;;1.75;;
7887;SDS011;3989;48.810;9.208;2023-07-29T07:51:23;1.88;;;1.52;;
7887;SDS011;3989;48.810;9.208;2023-07-29T07:53:49;2.30;;;1.85;;
7887;SDS011;3989;48.810;9.208;2023-07-29T07:56:16;1.52;;;1.40;;
7887;SDS011;3989;48.810;9.208;2023-07-29T07:58:44;1.67;;;1.58;;
7887;SDS011;3989;48.810;9.208;2023-07-29T08:01:10;1.63;;;1.50;;
7887;SDS011;3989;48.810;9.208;2023-07-29T08:03:37;1.58;;;1.48;;
7887;SDS011;3989;48.810;9.208;2023-07-29T08:06:03;1.80;;;1.70;;
7887;SDS011;3989;48.810;9.208;2023-07-29T08:08:30;2.90;;;2.00;;
7887;SDS011;3989;48.810;9.208;2023-07-29T08:10:56;1.70;;;1.60;;
7887;SDS011;3989;48.810;9.208;2023-07-29T08:13:23;4.22;;;2.00;;
7887;SDS011;3989;48.810;9.208;2023-07-29T08:15:52;1.70;;;1.60;;
7887;SDS011;3989;48.810;9.208;2023-07-29T08:18:19;3.63;;;1.58;;
7887;SDS011;3989;48.810;9.208;2023-07-29T08:20:51;2.00;;;1.55;;
7887;SDS011;3989;48.810;9.208;2023-07-29T08:23:18;2.03;;;1.63;;
7887;SDS011;3989;48.810;9.208;2023-07-29T08:25:49;1.98;;;1.40;;
7887;SDS011;3989;48.810;9.208;2023-07-29T08:28:17;1.35;;;1.35;;
7887;SDS011;3989;48.810;9.208;2023-07-29T08:30:43;1.33;;;1.23;;
7887;SDS011;3989;48.810;9.208;2023-07-29T08:33:11;2.28;;;1.55;;
7887;SDS011;3989;48.810;9.208;2023-07-29T08:35:38;2.00;;;1.88;;
7887;SDS011;3989;48.810;9.208;2023-07-29T08:38:04;2.90;;;1.40;;
7887;SDS011;3989;48.810;9.208;2023-07-29T08:40:31;1.60;;;1.50;;
7887;SDS011;3989;48.810;9.208;2023-07-29T08:43:00;2.15;;;1.30;;
7887;SDS011;3989;48.810;9.208;2023-07-29T08:45:31;1.50;;;1.40;;
7887;SDS011;3989;48.810;9.208;2023-07-29T08:48:02;1.45;;;1.35;;
7887;SDS011;3989;48.810;9.208;2023-07-29T08:50:34;1.35;;;1.10;;
7887;SDS011;3989;48.810;9.208;2023-07-29T08:53:02;2.92;;;1.27;;
7887;SDS011;3989;48.810;9.208;2023-07-29T08:55:30;1.85;;;1.75;;
7887;SDS011;3989;48.810;9.208;2023-07-29T08:57:57;1.13;;;1.13;;
7887;SDS011;3989;48.810;9.208;2023-07-29T09:00:25;1.10;;;1.10;;
7887;SDS011;3989;48.810;9.208;2023-07-29T09:02:52;1.13;;;1.13;;
7887;SDS011;3989;48.810;9.208;2023-07-29T09:07:48;1.85;;;1.10;;
7887;SDS011;3989;48.810;9.208;2023-07-29T09:10:18;1.40;;;1.25;;
7887;SDS011;3989;48.810;9.208;2023-07-29T09:12:48;1.05;;;1.00;;
7887;SDS011;3989;48.810;9.208;2023-07-29T09:15:25;1.15;;;1.15;;
7887;SDS011;3989;48.810;9.208;2023-07-29T09:17:53;1.73;;;1.05;;
7887;SDS011;3989;48.810;9.208;2023-07-29T09:20:23;1.45;;;1.20;;
7887;SDS011;3989;48.810;9.208;2023-07-29T09:22:51;2.10;;;1.35;;
7887;SDS011;3989;48.810;9.208;2023-07-29T09:25:22;1.15;;;1.15;;
7887;SDS011;3989;48.810;9.208;2023-07-29T09:27:50;1.27;;;1.15;;
7887;SDS011;3989;48.810;9.208;2023-07-29T09:30:17;1.40;;;1.30;;
7887;SDS011;3989;48.810;9.208;2023-07-29T09:32:44;0.95;;;0.95;;
7887;SDS011;3989;48.810;9.208;2023-07-29T09:35:11;3.55;;;1.20;;
7887;SDS011;3989;48.810;9.208;2023-07-29T09:37:38;1.33;;;1.33;;
7887;SDS011;3989;48.810;9.208;2023-07-29T09:40:07;1.10;;;1.00;;
7887;SDS011;3989;48.810;9.208;2023-07-29T09:42:47;1.30;;;1.20;;
7887;SDS011;3989;48.810;9.208;2023-07-29T09:45:18;1.02;;;1.02;;
7887;SDS011;3989;48.810;9.208;2023-07-29T09:47:46;1.20;;;1.10;;
7887;SDS011;3989;48.810;9.208;2023-07-29T09:50:12;1.15;;;1.08;;
7887;SDS011;3989;48.810;9.208;2023-07-29T09:52:39;2.90;;;1.00;;
7887;SDS011;3989;48.810;9.208;2023-07-29T09:55:08;1.30;;;1.25;;
7887;SDS011;3989;48.810;9.208;2023-07-29T09:57:36;1.15;;;1.15;;
7887;SDS011;3989;48.810;9.208;2023-07-29T10:00:06;3.00;;;1.30;;
7887;SDS011;3989;48.810;9.208;2023-07-29T10:02:36;1.15;;;1.05;;
7887;SDS011;3989;48.810;9.208;2023-07-29T10:05:05;2.67;;;1.13;;
7887;SDS011;3989;48.810;9.208;2023-07-29T10:07:34;1.00;;;1.00;;
7887;SDS011;3989;48.810;9.208;2023-07-29T10:10:02;2.75;;;1.10;;
7887;SDS011;3989;48.810;9.208;2023-07-29T10:12:32;0.98;;;0.98;;
7887;SDS011;3989;48.810;9.208;2023-07-29T10:15:00;1.88;;;1.13;;
7887;SDS011;3989;48.810;9.208;2023-07-29T10:17:29;1.10;;;1.10;;
7887;SDS011;3989;48.810;9.208;2023-07-29T10:19:58;1.25;;;1.15;;
7887;SDS011;3989;48.810;9.208;2023-07-29T10:22:26;1.15;;;1.00;;
7887;SDS011;3989;48.810;9.208;2023-07-29T10:24:59;1.05;;;1.05;;
7887;SDS011;3989;48.810;9.208;2023-07-29T10:27:38;1.35;;;1.13;;
7887;SDS011;3989;48.810;9.208;2023-07-29T10:30:10;1.30;;;1.00;;
7887;SDS011;3989;48.810;9.208;2023-07-29T10:32:38;1.08;;;1.08;;
7887;SDS011;3989;48.810;9.208;2023-07-29T10:35:09;1.02;;;0.82;;
7887;SDS011;3989;48.810;9.208;2023-07-29T10:37:36;0.80;;;0.80;;
7887;SDS011;3989;48.810;9.208;2023-07-29T10:40:07;1.27;;;1.10;;
7887;SDS011;3989;48.810;9.208;2023-07-29T10:42:36;1.58;;;0.77;;
7887;SDS011;3989;48.810;9.208;2023-07-29T10:45:19;2.35;;;1.00;;
7887;SDS011;3989;48.810;9.208;2023-07-29T10:47:46;1.92;;;0.80;;
7887;SDS011;3989;48.810;9.208;2023-07-29T10:50:17;2.38;;;1.13;;
7887;SDS011;3989;48.810;9.208;2023-07-29T10:52:48;0.90;;;0.90;;
7887;SDS011;3989;48.810;9.208;2023-07-29T10:55:25;1.65;;;1.10;;
7887;SDS011;3989;48.810;9.208;2023-07-29T10:58:05;1.15;;;1.05;;
7887;SDS011;3989;48.810;9.208;2023-07-29T11:00:33;0.80;;;0.80;;
7887;SDS011;3989;48.810;9.208;2023-07-29T11:03:02;1.02;;;1.02;;
7887;SDS011;3989;48.810;9.208;2023-07-29T11:05:44;1.42;;;1.00;;
7887;SDS011;3989;48.810;9.208;2023-07-29T11:08:18;2.35;;;1.30;;
7887;SDS011;3989;48.810;9.208;2023-07-29T11:13:41;1.00;;;1.00;;
7887;SDS011;3989;48.810;9.208;2023-07-29T11:16:10;1.10;;;1.10;;
7887;SDS011;3989;48.810;9.208;2023-07-29T11:18:42;0.90;;;0.90;;
7887;SDS011;3989;48.810;9.208;2023-07-29T11:21:17;1.20;;;1.20;;
7887;SDS011;3989;48.810;9.208;2023-07-29T11:23:47;1.10;;;1.10;;
7887;SDS011;3989;48.810;9.208;2023-07-29T11:26:19;1.05;;;1.05;;
7887;SDS011;3989;48.810;9.208;2023-07-29T11:29:01;1.20;;;1.02;;
7887;SDS011;3989;48.810;9.208;2023-07-29T11:31:38;1.10;;;1.10;;
7887;SDS011;3989;48.810;9.208;2023-07-29T11:34:14;1.10;;;1.00;;
7887;SDS011;3989;48.810;9.208;2023-07-29T11:37:09;2.50;;;1.15;;
7887;SDS011;3989;48.810;9.208;2023-07-29T11:40:02;1.42;;;1.30;;
7887;SDS011;3989;48.810;9.208;2023-07-29T11:42:38;1.08;;;1.08;;
7887;SDS011;3989;48.810;9.208;2023-07-29T11:45:08;1.73;;;1.10;;
7887;SDS011;3989;48.810;9.208;2023-07-29T11:47:35;1.10;;;1.10;;
7887;SDS011;3989;48.810;9.208;2023-07-29T11:50:05;0.95;;;0.95;;
7887;SDS011;3989;48.810;9.208;2023-07-29T11:52:39;0.70;;;0.70;;
7887;SDS011;3989;48.810;9.208;2023-07-29T11:55:11;1.00;;;1.00;;
7887;SDS011;3989;48.810;9.208;2023-07-29T11:57:39;1.20;;;1.20;;
7887;SDS011;3989;48.810;9.208;2023-07-29T12:00:08;1.15;;;1.15;;
7887;SDS011;3989;48.810;9.208;2023-07-29T12:02:37;1.02;;;1.02;;
7887;SDS011;3989;48.810;9.208;2023-07-29T12:05:21;1.52;;;1.50;;
7887;SDS011;3989;48.810;9.208;2023-07-29T12:07:52;1.20;;;1.20;;
7887;SDS011;3989;48.810;9.208;2023-07-29T12:10:19;1.10;;;1.10;;
7887;SDS011;3989;48.810;9.208;2023-07-29T12:13:07;1.00;;;0.90;;
7887;SDS011;3989;48.810;9.208;2023-07-29T12:15:44;1.25;;;1.10;;
7887;SDS011;3989;48.810;9.208;2023-07-29T12:18:16;0.90;;;0.90;;
7887;SDS011;3989;48.810;9.208;2023-07-29T12:20:50;1.33;;;1.20;;
7887;SDS011;3989;48.810;9.208;2023-07-29T12:23:32;1.80;;;1.38;;
7887;SDS011;3989;48.810;9.208;2023-07-29T12:26:03;1.85;;;1.25;;
7887;SDS011;3989;48.810;9.208;2023-07-29T12:28:36;1.02;;;1.02;;
7887;SDS011;3989;48.810;9.208;2023-07-29T12:31:16;1.77;;;1.50;;
7887;SDS011;3989;48.810;9.208;2023-07-29T12:33:55;1.17;;;1.17;;
7887;SDS011;3989;48.810;9.208;2023-07-29T12:36:27;1.77;;;1.25;;
7887;SDS011;3989;48.810;9.208;2023-07-29T12:39:01;1.13;;;1.13;;
7887;SDS011;3989;48.810;9.208;2023-07-29T12:41:31;1.20;;;1.20;;
7887;SDS011;3989;48.810;9.208;2023-07-29T12:44:09;1.70;;;1.60;;
7887;SDS011;3989;48.810;9.208;2023-07-29T12:46:52;1.83;;;1.27;;
7887;SDS011;3989;48.810;9.208;2023-07-29T12:49:35;1.20;;;1.20;;
7887;SDS011;3989;48.810;9.208;2023-07-29T12:52:06;1.55;;;1.20;;
7887;SDS011;3989;48.810;9.208;2023-07-29T12:54:32;1.15;;;1.15;;
7887;SDS011;3989;48.810;9.208;2023-07-29T12:57:18;1.83;;;1.30;;
7887;SDS011;3989;48.810;9.208;2023-07-29T12:59:45;1.35;;;1.20;;
7887;SDS011;3989;48.810;9.208;2023-07-29T13:02:21;2.08;;;1.13;;
7887;SDS011;3989;48.810;9.208;2023-07-29T13:04:55;1.38;;;1.38;;
7887;SDS011;3989;48.810;9.208;2023-07-29T13:07:27;1.10;;;1.10;;
7887;SDS011;3989;48.810;9.208;2023-07-29T13:10:14;1.30;;;1.20;;
7887;SDS011;3989;48.810;9.208;2023-07-29T13:12:47;1.05;;;1.05;;
7887;SDS011;3989;48.810;9.208;2023-07-29T13:15:16;1.48;;;1.48;;
7887;SDS011;3989;48.810;9.208;2023-07-29T13:17:54;2.45;;;1.08;;
7887;SDS011;3989;48.810;9.208;2023-07-29T13:20:39;1.30;;;1.30;;
7887;SDS011;3989;48.810;9.208;2023-07-29T13:23:16;1.20;;;1.20;;
7887;SDS011;3989;48.810;9.208;2023-07-29T13:25:45;2.38;;;1.35;;
7887;SDS011;3989;48.810;9.208;2023-07-29T13:28:16;1.30;;;1.20;;
7887;SDS011;3989;48.810;9.208;2023-07-29T13:30:44;1.27;;;1.25;;
7887;SDS011;3989;48.810;9.208;2023-07-29T13:36:06;1.30;;;1.20;;
7887;SDS011;3989;48.810;9.208;2023-07-29T13:38:34;1.73;;;1.27;;
7887;SDS011;3989;48.810;9.208;2023-07-29T13:41:13;1.35;;;1.35;;
7887;SDS011;3989;48.810;9.208;2023-07-29T13:43:58;1.73;;;1.63;;
7887;SDS011;3989;48.810;9.208;2023-07-29T13:46:37;1.13;;;1.13;;
7887;SDS011;3989;48.810;9.208;2023-07-29T13:49:18;1.50;;;1.50;;
7887;SDS011;3989;48.810;9.208;2023-07-29T13:51:47;1.27;;;1.27;;
7887;SDS011;3989;48.810;9.208;2023-07-29T13:54:23;1.08;;;1.08;;
7887;SDS011;3989;48.810;9.208;2023-07-29T13:57:07;1.38;;;1.38;;
7887;SDS011;3989;48.810;9.208;2023-07-29T13:59:45;1.38;;;1.38;;
7887;SDS011;3989;48.810;9.208;2023-07-29T14:02:17;1.38;;;1.27;;
7887;SDS011;3989;48.810;9.208;2023-07-29T14:04:54;1.48;;;1.38;;
7887;SDS011;3989;48.810;9.208;2023-07-29T14:07:32;3.53;;;1.70;;
7887;SDS011;3989;48.810;9.208;2023-07-29T14:10:04;2.85;;;1.88;;
7887;SDS011;3989;48.810;9.208;2023-07-29T14:12:35;1.00;;;1.00;;
7887;SDS011;3989;48.810;9.208;2023-07-29T14:15:11;1.15;;;1.15;;
7887;SDS011;3989;48.810;9.208;2023-07-29T14:17:41;1.42;;;1.40;;
7887;SDS011;3989;48.810;9.208;2023-07-29T14:20:24;1.10;;;1.10;;
7887;SDS011;3989;48.810;9.208;2023-07-29T14:23:01;1.50;;;1.40;;
7887;SDS011;3989;48.810;9.208;2023-07-29T14:25:34;1.42;;;1.30;;
7887;SDS011;3989;48.810;9.208;2023-07-29T14:28:07;1.00;;;1.00;;
7887;SDS011;3989;48.810;9.208;2023-07-29T14:30:42;1.80;;;1.33;;
7887;SDS011;3989;48.810;9.208;2023-07-29T14:33:45;1.27;;;1.17;;
7887;SDS011;3989;48.810;9.208;2023-07-29T14:36:17;1.20;;;1.20;;
7887;SDS011;3989;48.810;9.208;2023-07-29T14:38:47;1.73;;;1.50;;
7887;SDS011;3989;48.810;9.208;2023-07-29T14:44:17;1.80;;;1.23;;
7887;SDS011;3989;48.810;9.208;2023-07-29T14:46:49;1.15;;;1.15;;
7887;SDS011;3989;48.810;9.208;2023-07-29T14:49:33;1.38;;;1.38;;
7887;SDS011;3989;48.810;9.208;2023-07-29T14:52:04;1.10;;;1.10;;
7887;SDS011;3989;48.810;9.208;2023-07-29T14:57:55;1.45;;;1.35;;
7887;SDS011;3989;48.810;9.208;2023-07-29T15:00:44;1.33;;;1.23;;
7887;SDS011;3989;48.810;9.208;2023-07-29T15:03:16;2.03;;;1.50;;
7887;SDS011;3989;48.810;9.208;2023-07-29T15:05:48;1.40;;;1.40;;
7887;SDS011;3989;48.810;9.208;2023-07-29T15:08:20;1.50;;;1.40;;
7887;SDS011;3989;48.810;9.208;2023-07-29T15:10:48;1.85;;;1.60;;
7887;SDS011;3989;48.810;9.208;2023-07-29T15:13:20;1.75;;;1.65;;
7887;SDS011;3989;48.810;9.208;2023-07-29T15:16:00;1.45;;;1.45;;
7887;SDS011;3989;48.810;9.208;2023-07-29T15:18:30;1.27;;;1.20;;
7887;SDS011;3989;48.810;9.208;2023-07-29T15:20:58;1.42;;;1.42;;
7887;SDS011;3989;48.810;9.208;2023-07-29T15:23:28;5.07;;;1.67;;
7887;SDS011;3989;48.810;9.208;2023-07-29T15:25:59;1.67;;;1.58;;
7887;SDS011;3989;48.810;9.208;2023-07-29T15:28:30;1.27;;;1.27;;
7887;SDS011;3989;48.810;9.208;2023-07-29T15:30:59;1.23;;;1.20;;
7887;SDS011;3989;48.810;9.208;2023-07-29T15:33:29;1.45;;;1.35;;
7887;SDS011;3989;48.810;9.208;2023-07-29T15:35:59;3.28;;;1.55;;
7887;SDS011;3989;48.810;9.208;2023-07-29T15:38:30;1.30;;;1.30;;
7887;SDS011;3989;48.810;9.208;2023-07-29T15:41:00;1.55;;;1.45;;
7887;SDS011;3989;48.810;9.208;2023-07-29T15:43:27;1.50;;;1.40;;
7887;SDS011;3989;48.810;9.208;2023-07-29T15:45:53;2.35;;;1.65;;